sensor_id;sensor_type;location;lat;lon;timestamp;pressure;altitude;pressure_sealevel;temperature
61703;BMP280;47622;47.726;3.298;2022-12-07T00:03:32;99440.31;;;3.32
61703;BMP280;47622;47.726;3.298;2022-12-07T00:05:58;99439.13;;;3.39
61703;BMP280;47622;47.726;3.298;2022-12-07T00:08:24;99430.09;;;3.42
61703;BMP280;47622;47.726;3.298;2022-12-07T00:10:49;99434.78;;;3.45
61703;BMP280;47622;47.726;3.298;2022-12-07T00:13:15;99430.97;;;3.47
61703;BMP280;47622;47.726;3.298;2022-12-07T00:15:41;99422.00;;;3.38
61703;BMP280;47622;47.726;3.298;2022-12-07T00:18:06;99419.94;;;3.40
61703;BMP280;47622;47.726;3.298;2022-12-07T00:20:32;99414.78;;;3.40
61703;BMP280;47622;47.726;3.298;2022-12-07T00:22:58;99420.03;;;3.45
61703;BMP280;47622;47.726;3.298;2022-12-07T00:25:24;99415.25;;;3.37
61703;BMP280;47622;47.726;3.298;2022-12-07T00:27:52;99419.81;;;3.47
61703;BMP280;47622;47.726;3.298;2022-12-07T00:30:18;99417.69;;;3.44
61703;BMP280;47622;47.726;3.298;2022-12-07T00:32:43;99416.47;;;3.52
61703;BMP280;47622;47.726;3.298;2022-12-07T00:35:09;99416.75;;;3.55
61703;BMP280;47622;47.726;3.298;2022-12-07T00:37:35;99413.38;;;3.55
61703;BMP280;47622;47.726;3.298;2022-12-07T00:40:00;99413.94;;;3.57
61703;BMP280;47622;47.726;3.298;2022-12-07T00:42:26;99413.13;;;3.56
61703;BMP280;47622;47.726;3.298;2022-12-07T00:44:51;99406.41;;;3.55
61703;BMP280;47622;47.726;3.298;2022-12-07T00:47:17;99404.81;;;3.54
61703;BMP280;47622;47.726;3.298;2022-12-07T00:49:43;99407.25;;;3.61
61703;BMP280;47622;47.726;3.298;2022-12-07T00:52:08;99416.75;;;3.55
61703;BMP280;47622;47.726;3.298;2022-12-07T00:54:34;99409.22;;;3.54
61703;BMP280;47622;47.726;3.298;2022-12-07T00:56:59;99412.69;;;3.59
61703;BMP280;47622;47.726;3.298;2022-12-07T00:59:25;99408.66;;;3.46
61703;BMP280;47622;47.726;3.298;2022-12-07T01:01:50;99406.66;;;3.54
61703;BMP280;47622;47.726;3.298;2022-12-07T01:04:16;99401.72;;;3.52
61703;BMP280;47622;47.726;3.298;2022-12-07T01:06:41;99396.81;;;3.56
61703;BMP280;47622;47.726;3.298;2022-12-07T01:09:07;99400.19;;;3.56
61703;BMP280;47622;47.726;3.298;2022-12-07T01:11:33;99395.25;;;3.55
61703;BMP280;47622;47.726;3.298;2022-12-07T01:14:00;99400.97;;;3.57
61703;BMP280;47622;47.726;3.298;2022-12-07T01:16:28;99404.81;;;3.54
61703;BMP280;47622;47.726;3.298;2022-12-07T01:18:55;99411.91;;;3.59
61703;BMP280;47622;47.726;3.298;2022-12-07T01:21:25;99408.19;;;3.55
61703;BMP280;47622;47.726;3.298;2022-12-07T01:23:51;99407.81;;;3.63
61703;BMP280;47622;47.726;3.298;2022-12-07T01:26:22;99400.03;;;3.63
61703;BMP280;47622;47.726;3.298;2022-12-07T01:28:48;99401.03;;;3.62
61703;BMP280;47622;47.726;3.298;2022-12-07T01:31:20;99400.50;;;3.60
61703;BMP280;47622;47.726;3.298;2022-12-07T01:33:48;99405.69;;;3.60
61703;BMP280;47622;47.726;3.298;2022-12-07T01:36:17;99399.00;;;3.64
61703;BMP280;47622;47.726;3.298;2022-12-07T01:38:43;99402.38;;;3.64
61703;BMP280;47622;47.726;3.298;2022-12-07T01:41:10;99408.66;;;3.68
61703;BMP280;47622;47.726;3.298;2022-12-07T01:43:36;99409.97;;;3.71
61703;BMP280;47622;47.726;3.298;2022-12-07T01:46:03;99401.94;;;3.72
61703;BMP280;47622;47.726;3.298;2022-12-07T01:48:39;99399.59;;;3.71
61703;BMP280;47622;47.726;3.298;2022-12-07T01:51:11;99396.22;;;3.70
61703;BMP280;47622;47.726;3.298;2022-12-07T01:53:43;99394.91;;;3.68
61703;BMP280;47622;47.726;3.298;2022-12-07T01:56:12;99395.44;;;3.70
61703;BMP280;47622;47.726;3.298;2022-12-07T01:58:41;99399.06;;;3.69
61703;BMP280;47622;47.726;3.298;2022-12-07T02:01:07;99404.31;;;3.74
61703;BMP280;47622;47.726;3.298;2022-12-07T02:03:37;99403.78;;;3.77
61703;BMP280;47622;47.726;3.298;2022-12-07T02:06:05;99402.22;;;3.76
61703;BMP280;47622;47.726;3.298;2022-12-07T02:08:31;99399.38;;;3.77
61703;BMP280;47622;47.726;3.298;2022-12-07T02:10:57;99399.69;;;3.81
61703;BMP280;47622;47.726;3.298;2022-12-07T02:13:26;99397.34;;;3.80
61703;BMP280;47622;47.726;3.298;2022-12-07T02:19:06;99399.59;;;3.71
61703;BMP280;47622;47.726;3.298;2022-12-07T02:21:50;99403.53;;;3.73
61703;BMP280;47622;47.726;3.298;2022-12-07T02:30:00;99408.88;;;3.67
61703;BMP280;47622;47.726;3.298;2022-12-07T02:32:39;99402.19;;;3.71
61703;BMP280;47622;47.726;3.298;2022-12-07T02:35:09;99393.09;;;3.68
61703;BMP280;47622;47.726;3.298;2022-12-07T02:37:43;99404.25;;;3.69
61703;BMP280;47622;47.726;3.298;2022-12-07T02:40:29;99402.91;;;3.66
61703;BMP280;47622;47.726;3.298;2022-12-07T02:43:24;99401.53;;;3.59
61703;BMP280;47622;47.726;3.298;2022-12-07T02:45:52;99403.22;;;3.70
61703;BMP280;47622;47.726;3.298;2022-12-07T02:48:19;99401.16;;;3.72
61703;BMP280;47622;47.726;3.298;2022-12-07T02:50:50;99394.91;;;3.68
61703;BMP280;47622;47.726;3.298;2022-12-07T02:53:37;99394.28;;;3.61
61703;BMP280;47622;47.726;3.298;2022-12-07T02:58:54;99401.03;;;3.62
61703;BMP280;47622;47.726;3.298;2022-12-07T03:04:06;99394.00;;;3.57
61703;BMP280;47622;47.726;3.298;2022-12-07T03:06:42;99399.28;;;3.45
61703;BMP280;47622;47.726;3.298;2022-12-07T03:09:17;99393.13;;;3.30
61703;BMP280;47622;47.726;3.298;2022-12-07T03:14:25;99394.72;;;3.14
61703;BMP280;47622;47.726;3.298;2022-12-07T03:17:02;99387.13;;;3.07
61703;BMP280;47622;47.726;3.298;2022-12-07T03:19:32;99395.22;;;3.11
61703;BMP280;47622;47.726;3.298;2022-12-07T03:22:05;99386.59;;;3.05
61703;BMP280;47622;47.726;3.298;2022-12-07T03:24:53;99387.06;;;3.02
61703;BMP280;47622;47.726;3.298;2022-12-07T03:27:24;99393.50;;;3.00
61703;BMP280;47622;47.726;3.298;2022-12-07T03:30:09;99390.81;;;3.11
61703;BMP280;47622;47.726;3.298;2022-12-07T03:32:42;99395.53;;;3.14
61703;BMP280;47622;47.726;3.298;2022-12-07T03:35:22;99386.44;;;3.12
61703;BMP280;47622;47.726;3.298;2022-12-07T03:40:27;99385.69;;;2.78
61703;BMP280;47622;47.726;3.298;2022-12-07T03:42:54;99394.94;;;2.74
61703;BMP280;47622;47.726;3.298;2022-12-07T03:45:24;99402.94;;;2.72
61703;BMP280;47622;47.726;3.298;2022-12-07T03:48:13;99394.00;;;2.80
61703;BMP280;47622;47.726;3.298;2022-12-07T03:50:50;99383.41;;;2.81
61703;BMP280;47622;47.726;3.298;2022-12-07T03:53:39;99393.22;;;2.79
61703;BMP280;47622;47.726;3.298;2022-12-07T03:56:07;99388.84;;;2.63
61703;BMP280;47622;47.726;3.298;2022-12-07T03:58:35;99381.44;;;2.55
61703;BMP280;47622;47.726;3.298;2022-12-07T04:01:01;99385.28;;;2.69
61703;BMP280;47622;47.726;3.298;2022-12-07T04:03:27;99379.78;;;2.65
61703;BMP280;47622;47.726;3.298;2022-12-07T04:05:53;99389.50;;;2.75
61703;BMP280;47622;47.726;3.298;2022-12-07T04:08:19;99387.41;;;2.72
61703;BMP280;47622;47.726;3.298;2022-12-07T04:10:45;99371.63;;;2.74
61703;BMP280;47622;47.726;3.298;2022-12-07T04:13:10;99380.34;;;2.84
61703;BMP280;47622;47.726;3.298;2022-12-07T04:15:36;99377.22;;;2.82
61703;BMP280;47622;47.726;3.298;2022-12-07T04:18:02;99380.34;;;2.84
61703;BMP280;47622;47.726;3.298;2022-12-07T04:20:27;99377.63;;;2.96
61703;BMP280;47622;47.726;3.298;2022-12-07T04:22:53;99379.16;;;2.92
61703;BMP280;47622;47.726;3.298;2022-12-07T04:25:19;99367.16;;;2.86
61703;BMP280;47622;47.726;3.298;2022-12-07T04:27:44;99369.38;;;2.77
61703;BMP280;47622;47.726;3.298;2022-12-07T04:30:10;99372.50;;;2.79
61703;BMP280;47622;47.726;3.298;2022-12-07T04:32:36;99362.69;;;2.81
61703;BMP280;47622;47.726;3.298;2022-12-07T04:35:02;99368.44;;;2.83
61703;BMP280;47622;47.726;3.298;2022-12-07T04:37:28;99370.78;;;2.85
61703;BMP280;47622;47.726;3.298;2022-12-07T04:39:54;99367.16;;;2.86
61703;BMP280;47622;47.726;3.298;2022-12-07T04:42:19;99367.41;;;2.84
61703;BMP280;47622;47.726;3.298;2022-12-07T04:44:45;99367.69;;;2.71
61703;BMP280;47622;47.726;3.298;2022-12-07T04:47:11;99367.16;;;2.69
61703;BMP280;47622;47.726;3.298;2022-12-07T04:49:36;99356.34;;;2.72
61703;BMP280;47622;47.726;3.298;2022-12-07T04:52:02;99355.25;;;2.68
61703;BMP280;47622;47.726;3.298;2022-12-07T04:54:28;99355.19;;;2.63
61703;BMP280;47622;47.726;3.298;2022-12-07T04:56:53;99364.53;;;2.64
61703;BMP280;47622;47.726;3.298;2022-12-07T04:59:19;99363.75;;;2.63
61703;BMP280;47622;47.726;3.298;2022-12-07T05:01:44;99358.16;;;2.55
61703;BMP280;47622;47.726;3.298;2022-12-07T05:04:10;99363.41;;;2.60
61703;BMP280;47622;47.726;3.298;2022-12-07T05:06:36;99358.16;;;2.55
61703;BMP280;47622;47.726;3.298;2022-12-07T05:09:02;99364.34;;;2.54
61703;BMP280;47622;47.726;3.298;2022-12-07T05:11:29;99366.56;;;2.62
61703;BMP280;47622;47.726;3.298;2022-12-07T05:14:06;99349.13;;;2.74
61703;BMP280;47622;47.726;3.298;2022-12-07T05:16:33;99356.81;;;2.69
61703;BMP280;47622;47.726;3.298;2022-12-07T05:18:58;99358.22;;;2.60
61703;BMP280;47622;47.726;3.298;2022-12-07T05:21:24;99356.91;;;2.57
61703;BMP280;47622;47.726;3.298;2022-12-07T05:23:50;99355.91;;;2.58
61703;BMP280;47622;47.726;3.298;2022-12-07T05:26:16;99356.66;;;2.59
61703;BMP280;47622;47.726;3.298;2022-12-07T05:28:41;99354.66;;;2.61
61703;BMP280;47622;47.726;3.298;2022-12-07T05:31:07;99346.91;;;2.66
61703;BMP280;47622;47.726;3.298;2022-12-07T05:33:33;99352.66;;;2.68
61703;BMP280;47622;47.726;3.298;2022-12-07T05:35:58;99347.34;;;2.58
61703;BMP280;47622;47.726;3.298;2022-12-07T05:38:24;99345.34;;;2.65
61703;BMP280;47622;47.726;3.298;2022-12-07T05:40:53;99358.06;;;2.50
61703;BMP280;47622;47.726;3.298;2022-12-07T05:43:18;99360.97;;;2.53
61703;BMP280;47622;47.726;3.298;2022-12-07T05:45:44;99357.16;;;2.56
61703;BMP280;47622;47.726;3.298;2022-12-07T05:48:09;99357.63;;;2.53
61703;BMP280;47622;47.726;3.298;2022-12-07T05:50:35;99370.31;;;2.54
61703;BMP280;47622;47.726;3.298;2022-12-07T05:53:00;99357.63;;;2.53
61703;BMP280;47622;47.726;3.298;2022-12-07T05:55:26;99361.75;;;2.54
61703;BMP280;47622;47.726;3.298;2022-12-07T05:57:51;99367.03;;;2.59
61703;BMP280;47622;47.726;3.298;2022-12-07T06:00:35;99360.44;;;2.51
61703;BMP280;47622;47.726;3.298;2022-12-07T06:03:01;99361.75;;;2.54
61703;BMP280;47622;47.726;3.298;2022-12-07T06:05:27;99366.25;;;2.58
61703;BMP280;47622;47.726;3.298;2022-12-07T06:07:52;99374.94;;;2.52
61703;BMP280;47622;47.726;3.298;2022-12-07T06:10:18;99360.75;;;2.55
61703;BMP280;47622;47.726;3.298;2022-12-07T06:12:43;99363.25;;;2.50
61703;BMP280;47622;47.726;3.298;2022-12-07T06:15:11;99367.50;;;2.56
61703;BMP280;47622;47.726;3.298;2022-12-07T06:17:38;99364.44;;;2.59
61703;BMP280;47622;47.726;3.298;2022-12-07T06:20:05;99360.75;;;2.55
61703;BMP280;47622;47.726;3.298;2022-12-07T06:22:30;99364.53;;;2.64
61703;BMP280;47622;47.726;3.298;2022-12-07T06:24:56;99359.50;;;2.57
61703;BMP280;47622;47.726;3.298;2022-12-07T06:27:21;99354.00;;;2.54
61703;BMP280;47622;47.726;3.298;2022-12-07T06:29:47;99357.63;;;2.53
61703;BMP280;47622;47.726;3.298;2022-12-07T06:32:13;99358.56;;;2.47
61703;BMP280;47622;47.726;3.298;2022-12-07T06:34:38;99352.41;;;2.36
61703;BMP280;47622;47.726;3.298;2022-12-07T06:37:04;99358.38;;;2.36
61703;BMP280;47622;47.726;3.298;2022-12-07T06:39:30;99357.09;;;2.39
61703;BMP280;47622;47.726;3.298;2022-12-07T06:41:56;99367.00;;;2.42
61703;BMP280;47622;47.726;3.298;2022-12-07T06:44:22;99364.34;;;2.37
61703;BMP280;47622;47.726;3.298;2022-12-07T06:46:49;99356.66;;;2.42
61703;BMP280;47622;47.726;3.298;2022-12-07T06:49:15;99364.34;;;2.20
61703;BMP280;47622;47.726;3.298;2022-12-07T06:51:41;99364.88;;;2.39
61703;BMP280;47622;47.726;3.298;2022-12-07T06:54:11;99358.69;;;2.23
61703;BMP280;47622;47.726;3.298;2022-12-07T06:56:37;99367.84;;;2.14
61703;BMP280;47622;47.726;3.298;2022-12-07T06:59:04;99368.88;;;2.13
61703;BMP280;47622;47.726;3.298;2022-12-07T07:01:32;99370.00;;;2.05
61703;BMP280;47622;47.726;3.298;2022-12-07T07:03:57;99383.25;;;2.09
61703;BMP280;47622;47.726;3.298;2022-12-07T07:06:23;99381.84;;;2.18
61703;BMP280;47622;47.726;3.298;2022-12-07T07:08:49;99381.69;;;2.08
61703;BMP280;47622;47.726;3.298;2022-12-07T07:11:14;99383.84;;;1.99
61703;BMP280;47622;47.726;3.298;2022-12-07T07:13:40;99386.56;;;1.93
61703;BMP280;47622;47.726;3.298;2022-12-07T07:16:06;99393.13;;;1.83
61703;BMP280;47622;47.726;3.298;2022-12-07T07:18:36;99388.13;;;1.65
61703;BMP280;47622;47.726;3.298;2022-12-07T07:21:02;99387.03;;;1.49
61703;BMP280;47622;47.726;3.298;2022-12-07T07:23:30;99387.91;;;1.55
61703;BMP280;47622;47.726;3.298;2022-12-07T07:25:55;99391.97;;;1.51
61703;BMP280;47622;47.726;3.298;2022-12-07T07:28:21;99384.53;;;1.43
61703;BMP280;47622;47.726;3.298;2022-12-07T07:30:47;99390.53;;;1.31
61703;BMP280;47622;47.726;3.298;2022-12-07T07:33:12;99394.22;;;1.36
61703;BMP280;47622;47.726;3.298;2022-12-07T07:35:38;99390.19;;;1.40
61703;BMP280;47622;47.726;3.298;2022-12-07T07:38:04;99395.44;;;1.45
61703;BMP280;47622;47.726;3.298;2022-12-07T07:40:30;99400.94;;;1.37
61703;BMP280;47622;47.726;3.298;2022-12-07T07:42:56;99400.41;;;1.35
61703;BMP280;47622;47.726;3.298;2022-12-07T07:45:24;99408.25;;;1.40
61703;BMP280;47622;47.726;3.298;2022-12-07T07:47:50;99411.50;;;1.47
61703;BMP280;47622;47.726;3.298;2022-12-07T07:50:17;99398.69;;;1.52
61703;BMP280;47622;47.726;3.298;2022-12-07T07:52:42;99404.88;;;1.51
61703;BMP280;47622;47.726;3.298;2022-12-07T07:55:08;99404.09;;;1.39
61703;BMP280;47622;47.726;3.298;2022-12-07T07:57:35;99401.41;;;1.45
61703;BMP280;47622;47.726;3.298;2022-12-07T08:00:03;99402.16;;;1.57
61703;BMP280;47622;47.726;3.298;2022-12-07T08:02:29;99407.00;;;1.54
61703;BMP280;47622;47.726;3.298;2022-12-07T08:04:55;99408.69;;;1.48
61703;BMP280;47622;47.726;3.298;2022-12-07T08:07:21;99413.06;;;1.48
61703;BMP280;47622;47.726;3.298;2022-12-07T08:09:46;99411.38;;;1.53
61703;BMP280;47622;47.726;3.298;2022-12-07T08:12:12;99405.91;;;1.50
61703;BMP280;47622;47.726;3.298;2022-12-07T08:14:37;99412.75;;;1.44
61703;BMP280;47622;47.726;3.298;2022-12-07T08:17:03;99405.66;;;1.51
61703;BMP280;47622;47.726;3.298;2022-12-07T08:19:29;99415.53;;;1.43
61703;BMP280;47622;47.726;3.298;2022-12-07T08:21:55;99413.84;;;1.37
61703;BMP280;47622;47.726;3.298;2022-12-07T08:24:21;99420.59;;;1.49
61703;BMP280;47622;47.726;3.298;2022-12-07T08:26:46;99419.72;;;1.55
61703;BMP280;47622;47.726;3.298;2022-12-07T08:29:12;99430.25;;;1.66
61703;BMP280;47622;47.726;3.298;2022-12-07T08:31:38;99418.44;;;1.58
61703;BMP280;47622;47.726;3.298;2022-12-07T08:34:03;99429.00;;;1.68
61703;BMP280;47622;47.726;3.298;2022-12-07T08:36:29;99427.66;;;1.77
61703;BMP280;47622;47.726;3.298;2022-12-07T08:38:54;99421.22;;;1.80
61703;BMP280;47622;47.726;3.298;2022-12-07T08:41:20;99431.66;;;1.85
61703;BMP280;47622;47.726;3.298;2022-12-07T08:43:45;99427.97;;;1.81
61703;BMP280;47622;47.726;3.298;2022-12-07T08:46:22;99432.63;;;1.96
61703;BMP280;47622;47.726;3.298;2022-12-07T08:48:56;99433.50;;;2.13
61703;BMP280;47622;47.726;3.298;2022-12-07T08:51:23;99441.34;;;2.18
61703;BMP280;47622;47.726;3.298;2022-12-07T08:53:50;99442.75;;;1.97
61703;BMP280;47622;47.726;3.298;2022-12-07T08:56:17;99442.88;;;1.91
61703;BMP280;47622;47.726;3.298;2022-12-07T08:58:44;99435.34;;;1.89
61703;BMP280;47622;47.726;3.298;2022-12-07T09:01:09;99446.75;;;1.76
61703;BMP280;47622;47.726;3.298;2022-12-07T09:03:35;99433.38;;;1.79
61703;BMP280;47622;47.726;3.298;2022-12-07T09:06:01;99437.50;;;1.80
61703;BMP280;47622;47.726;3.298;2022-12-07T09:08:31;99447.13;;;1.97
61703;BMP280;47622;47.726;3.298;2022-12-07T09:10:59;99442.25;;;1.83
61703;BMP280;47622;47.726;3.298;2022-12-07T09:13:24;99439.13;;;1.81
61703;BMP280;47622;47.726;3.298;2022-12-07T09:15:50;99433.88;;;1.93
61703;BMP280;47622;47.726;3.298;2022-12-07T09:18:16;99433.84;;;2.05
61703;BMP280;47622;47.726;3.298;2022-12-07T09:20:42;99435.47;;;2.23
61703;BMP280;47622;47.726;3.298;2022-12-07T09:23:07;99434.59;;;2.17
61703;BMP280;47622;47.726;3.298;2022-12-07T09:25:34;99441.72;;;2.10
61703;BMP280;47622;47.726;3.298;2022-12-07T09:28:00;99439.03;;;2.05
61703;BMP280;47622;47.726;3.298;2022-12-07T09:30:27;99437.19;;;2.17
61703;BMP280;47622;47.726;3.298;2022-12-07T09:32:53;99435.81;;;2.26
61703;BMP280;47622;47.726;3.298;2022-12-07T09:35:19;99435.97;;;2.36
61703;BMP280;47622;47.726;3.298;2022-12-07T09:37:45;99426.00;;;2.57
61703;BMP280;47622;47.726;3.298;2022-12-07T09:40:11;99430.72;;;2.93
61703;BMP280;47622;47.726;3.298;2022-12-07T09:42:39;99435.84;;;3.27
61703;BMP280;47622;47.726;3.298;2022-12-07T09:45:10;99437.63;;;3.65
61703;BMP280;47622;47.726;3.298;2022-12-07T09:47:37;99444.25;;;4.00
61703;BMP280;47622;47.726;3.298;2022-12-07T09:50:10;99443.84;;;3.86
61703;BMP280;47622;47.726;3.298;2022-12-07T09:52:37;99435.69;;;3.99
61703;BMP280;47622;47.726;3.298;2022-12-07T09:55:07;99425.84;;;4.01
61703;BMP280;47622;47.726;3.298;2022-12-07T09:57:34;99437.09;;;3.85
61703;BMP280;47622;47.726;3.298;2022-12-07T10:00:07;99433.94;;;3.83
61703;BMP280;47622;47.726;3.298;2022-12-07T10:02:38;99425.75;;;3.91
61703;BMP280;47622;47.726;3.298;2022-12-07T10:05:06;99424.34;;;4.06
61703;BMP280;47622;47.726;3.298;2022-12-07T10:07:32;99422.94;;;4.25
61703;BMP280;47622;47.726;3.298;2022-12-07T10:09:58;99429.69;;;4.21
61703;BMP280;47622;47.726;3.298;2022-12-07T10:12:23;99421.97;;;4.31
61703;BMP280;47622;47.726;3.298;2022-12-07T10:15:01;99427.16;;;4.26
61703;BMP280;47622;47.726;3.298;2022-12-07T10:17:40;99430.53;;;4.04
61703;BMP280;47622;47.726;3.298;2022-12-07T10:22:37;99418.38;;;4.32
61703;BMP280;47622;47.726;3.298;2022-12-07T10:25:18;99419.44;;;4.36
61703;BMP280;47622;47.726;3.298;2022-12-07T10:27:57;99414.19;;;4.31
61703;BMP280;47622;47.726;3.298;2022-12-07T10:30:23;99417.97;;;4.18
61703;BMP280;47622;47.726;3.298;2022-12-07T10:32:48;99412.34;;;4.26
61703;BMP280;47622;47.726;3.298;2022-12-07T10:37:46;99413.31;;;5.37
61703;BMP280;47622;47.726;3.298;2022-12-07T10:51:19;99397.25;;;8.65
61703;BMP280;47622;47.726;3.298;2022-12-07T10:54:52;99396.50;;;8.30
61703;BMP280;47622;47.726;3.298;2022-12-07T10:59:48;99377.63;;;7.75
61703;BMP280;47622;47.726;3.298;2022-12-07T11:05:17;99376.88;;;8.62
61703;BMP280;47622;47.726;3.298;2022-12-07T11:07:55;99378.56;;;8.52
61703;BMP280;47622;47.726;3.298;2022-12-07T11:10:48;99368.41;;;8.46
61703;BMP280;47622;47.726;3.298;2022-12-07T11:13:19;99374.72;;;8.69
61703;BMP280;47622;47.726;3.298;2022-12-07T11:18:49;99364.84;;;7.34
61703;BMP280;47622;47.726;3.298;2022-12-07T11:21:30;99355.69;;;6.72
61703;BMP280;47622;47.726;3.298;2022-12-07T11:37:37;99344.31;;;10.18
61703;BMP280;47622;47.726;3.298;2022-12-07T11:40:11;99337.13;;;10.79
61703;BMP280;47622;47.726;3.298;2022-12-07T11:42:46;99341.81;;;9.48
61703;BMP280;47622;47.726;3.298;2022-12-07T11:45:20;99346.47;;;9.51
61703;BMP280;47622;47.726;3.298;2022-12-07T11:56:15;99323.09;;;11.19
61703;BMP280;47622;47.726;3.298;2022-12-07T11:58:48;99315.56;;;11.40
61703;BMP280;47622;47.726;3.298;2022-12-07T12:03:46;99304.28;;;11.04
61703;BMP280;47622;47.726;3.298;2022-12-07T12:06:13;99304.28;;;9.99
61703;BMP280;47622;47.726;3.298;2022-12-07T12:08:44;99302.19;;;10.01
61703;BMP280;47622;47.726;3.298;2022-12-07T12:17:14;99291.28;;;10.76
61703;BMP280;47622;47.726;3.298;2022-12-07T12:22:24;99278.50;;;10.20
61703;BMP280;47622;47.726;3.298;2022-12-07T12:24:53;99287.63;;;10.22
61703;BMP280;47622;47.726;3.298;2022-12-07T12:27:30;99289.34;;;9.99
61703;BMP280;47622;47.726;3.298;2022-12-07T12:29:59;99279.66;;;9.54
61703;BMP280;47622;47.726;3.298;2022-12-07T12:45:19;99254.94;;;7.80
61703;BMP280;47622;47.726;3.298;2022-12-07T12:48:01;99261.19;;;7.11
61703;BMP280;47622;47.726;3.298;2022-12-07T12:53:14;99253.22;;;6.92
61703;BMP280;47622;47.726;3.298;2022-12-07T13:00:47;99251.75;;;6.71
61703;BMP280;47622;47.726;3.298;2022-12-07T13:03:30;99240.06;;;6.48
61703;BMP280;47622;47.726;3.298;2022-12-07T13:08:50;99244.31;;;6.39
61703;BMP280;47622;47.726;3.298;2022-12-07T13:11:28;99232.34;;;6.33
61703;BMP280;47622;47.726;3.298;2022-12-07T13:16:58;99236.78;;;6.12
61703;BMP280;47622;47.726;3.298;2022-12-07T13:19:53;99236.06;;;5.91
61703;BMP280;47622;47.726;3.298;2022-12-07T13:25:19;99225.38;;;5.92
61703;BMP280;47622;47.726;3.298;2022-12-07T13:28:09;99218.91;;;5.44
61703;BMP280;47622;47.726;3.298;2022-12-07T13:30:45;99218.13;;;5.54
61703;BMP280;47622;47.726;3.298;2022-12-07T13:33:12;99214.72;;;5.53
61703;BMP280;47622;47.726;3.298;2022-12-07T13:35:38;99216.31;;;5.59
61703;BMP280;47622;47.726;3.298;2022-12-07T13:38:23;99208.25;;;5.40
61703;BMP280;47622;47.726;3.298;2022-12-07T13:41:20;99218.88;;;5.34
61703;BMP280;47622;47.726;3.298;2022-12-07T13:44:00;99213.66;;;5.29
61703;BMP280;47622;47.726;3.298;2022-12-07T13:46:35;99204.81;;;5.20
61703;BMP280;47622;47.726;3.298;2022-12-07T13:49:26;99205.88;;;5.19
61703;BMP280;47622;47.726;3.298;2022-12-07T13:51:54;99204.84;;;5.25
61703;BMP280;47622;47.726;3.298;2022-12-07T13:54:21;99206.13;;;5.07
61703;BMP280;47622;47.726;3.298;2022-12-07T13:56:52;99198.31;;;5.07
61703;BMP280;47622;47.726;3.298;2022-12-07T13:59:25;99189.72;;;4.96
61703;BMP280;47622;47.726;3.298;2022-12-07T14:01:52;99193.84;;;4.87
61703;BMP280;47622;47.726;3.298;2022-12-07T14:06:56;99184.75;;;4.74
61703;BMP280;47622;47.726;3.298;2022-12-07T14:09:24;99188.09;;;4.70
61703;BMP280;47622;47.726;3.298;2022-12-07T14:11:52;99190.66;;;4.65
61703;BMP280;47622;47.726;3.298;2022-12-07T14:14:27;99191.66;;;4.58
61703;BMP280;47622;47.726;3.298;2022-12-07T14:17:02;99183.31;;;4.46
61703;BMP280;47622;47.726;3.298;2022-12-07T14:19:59;99180.19;;;4.44
61703;BMP280;47622;47.726;3.298;2022-12-07T14:22:36;99175.75;;;4.35
61703;BMP280;47622;47.726;3.298;2022-12-07T14:27:46;99180.34;;;4.17
61703;BMP280;47622;47.726;3.298;2022-12-07T14:30:16;99187.31;;;4.12
61703;BMP280;47622;47.726;3.298;2022-12-07T14:32:43;99188.78;;;4.02
61703;BMP280;47622;47.726;3.298;2022-12-07T14:35:15;99179.44;;;3.96
61703;BMP280;47622;47.726;3.298;2022-12-07T14:37:44;99180.91;;;3.87
61703;BMP280;47622;47.726;3.298;2022-12-07T14:40:15;99176.66;;;3.71
61703;BMP280;47622;47.726;3.298;2022-12-07T14:42:42;99176.66;;;3.71
61703;BMP280;47622;47.726;3.298;2022-12-07T14:45:14;99182.72;;;3.55
61703;BMP280;47622;47.726;3.298;2022-12-07T14:47:40;99182.91;;;3.43
61703;BMP280;47622;47.726;3.298;2022-12-07T14:50:06;99184.59;;;3.32
61703;BMP280;47622;47.726;3.298;2022-12-07T14:52:32;99185.19;;;3.39
61703;BMP280;47622;47.726;3.298;2022-12-07T14:54:58;99187.25;;;3.37
61703;BMP280;47622;47.726;3.298;2022-12-07T14:57:24;99185.81;;;3.19
61703;BMP280;47622;47.726;3.298;2022-12-07T14:59:49;99182.25;;;3.04
61703;BMP280;47622;47.726;3.298;2022-12-07T15:02:15;99183.81;;;3.05
61703;BMP280;47622;47.726;3.298;2022-12-07T15:04:41;99187.25;;;3.10
61703;BMP280;47622;47.726;3.298;2022-12-07T15:07:15;99184.28;;;3.02
61703;BMP280;47622;47.726;3.298;2022-12-07T15:09:42;99178.13;;;3.08
61703;BMP280;47622;47.726;3.298;2022-12-07T15:12:07;99180.91;;;3.01
61703;BMP280;47622;47.726;3.298;2022-12-07T15:14:33;99170.50;;;2.96
61703;BMP280;47622;47.726;3.298;2022-12-07T15:16:59;99182.63;;;2.90
61703;BMP280;47622;47.726;3.298;2022-12-07T15:19:26;99181.28;;;2.61
61703;BMP280;47622;47.726;3.298;2022-12-07T15:21:52;99180.66;;;2.54
61703;BMP280;47622;47.726;3.298;2022-12-07T15:24:18;99179.72;;;2.65
61703;BMP280;47622;47.726;3.298;2022-12-07T15:26:44;99176.50;;;2.53
61703;BMP280;47622;47.726;3.298;2022-12-07T15:29:10;99178.06;;;2.54
61703;BMP280;47622;47.726;3.298;2022-12-07T15:31:36;99176.50;;;2.53
61703;BMP280;47622;47.726;3.298;2022-12-07T15:34:03;99180.28;;;2.45
61703;BMP280;47622;47.726;3.298;2022-12-07T15:36:31;99175.88;;;2.46
61703;BMP280;47622;47.726;3.298;2022-12-07T15:38:58;99162.41;;;2.44
61703;BMP280;47622;47.726;3.298;2022-12-07T15:41:23;99165.06;;;2.49
61703;BMP280;47622;47.726;3.298;2022-12-07T15:43:49;99161.94;;;2.47
61703;BMP280;47622;47.726;3.298;2022-12-07T15:46:36;99158.13;;;2.54
61703;BMP280;47622;47.726;3.298;2022-12-07T15:49:03;99156.03;;;2.51
61703;BMP280;47622;47.726;3.298;2022-12-07T15:51:29;99153.38;;;2.46
61703;BMP280;47622;47.726;3.298;2022-12-07T15:53:57;99149.13;;;2.57
61703;BMP280;47622;47.726;3.298;2022-12-07T15:56:23;99150.22;;;2.61
61703;BMP280;47622;47.726;3.298;2022-12-07T15:58:49;99149.97;;;2.62
61703;BMP280;47622;47.726;3.298;2022-12-07T16:01:16;99145.75;;;2.56
61703;BMP280;47622;47.726;3.298;2022-12-07T16:03:43;99142.34;;;2.51
61703;BMP280;47622;47.726;3.298;2022-12-07T16:06:09;99147.09;;;2.20
61703;BMP280;47622;47.726;3.298;2022-12-07T16:08:35;99148.31;;;2.34
61703;BMP280;47622;47.726;3.298;2022-12-07T16:11:05;99154.09;;;2.42
61703;BMP280;47622;47.726;3.298;2022-12-07T16:13:31;99144.00;;;2.40
61703;BMP280;47622;47.726;3.298;2022-12-07T16:15:57;99151.19;;;2.38
61703;BMP280;47622;47.726;3.298;2022-12-07T16:18:22;99139.53;;;2.35
61703;BMP280;47622;47.726;3.298;2022-12-07T16:20:48;99136.00;;;2.42
61703;BMP280;47622;47.726;3.298;2022-12-07T16:23:15;99135.44;;;2.39
61703;BMP280;47622;47.726;3.298;2022-12-07T16:25:41;99128.84;;;2.49